Time;durP1;ratioP1;P1;durP2;ratioP2;P2;SDS_P1;SDS_P2;PMS_P1;PMS_P2;Temp;Humidity;BMP_temperature;BMP_pressure;BME280_temperature;BME280_humidity;BME280_pressure;Samples;Min_cycle;Max_cycle;Signal;HPM_P1;HPM_P2
2022/04/21 00:00:35;;;;;;;16.50;14.57;;;;;;;2.60;100.00;98974.09;5089208;28;20853;-77
2022/04/21 00:03:02;;;;;;;15.83;14.27;;;;;;;2.55;100.00;98971.19;5088471;28;20220;-78
2022/04/21 00:05:30;;;;;;;16.27;14.77;;;;;;;2.50;100.00;98976.19;5091858;28;20191;-78
2022/04/21 00:07:57;;;;;;;17.30;15.17;;;;;;;2.41;100.00;98969.38;5092226;28;20254;-78
2022/04/21 00:10:24;;;;;;;15.90;14.40;;;;;;;2.35;100.00;98970.91;5092440;28;20761;-77
2022/04/21 00:12:52;;;;;;;15.90;14.43;;;;;;;2.28;100.00;98975.31;5091664;28;20228;-78
2022/04/21 00:15:18;;;;;;;15.70;14.20;;;;;;;2.28;100.00;98967.38;5093535;28;20549;-75
2022/04/21 00:17:45;;;;;;;14.93;13.63;;;;;;;2.17;100.00;98976.56;5093022;28;20238;-76
2022/04/21 00:20:12;;;;;;;16.77;15.13;;;;;;;2.10;100.00;98980.94;5092775;28;20283;-78
2022/04/21 00:25:27;;;;;;;16.03;14.53;;;;;;;2.03;100.00;98972.09;5092894;28;20228;-78
2022/04/21 00:27:57;;;;;;;15.23;13.53;;;;;;;2.00;100.00;98975.13;5092860;28;20215;-78
2022/04/21 00:30:23;;;;;;;15.63;14.13;;;;;;;1.95;100.00;98974.84;5092407;28;20215;-77
2022/04/21 00:32:51;;;;;;;15.27;13.87;;;;;;;1.92;100.00;98980.44;5092488;28;20704;-77
2022/04/21 00:35:24;;;;;;;15.40;13.90;;;;;;;1.94;100.00;98980.28;5093125;28;20173;-77
2022/04/21 00:37:56;;;;;;;15.10;13.70;;;;;;;1.91;100.00;98976.19;5092730;28;20241;-77
2022/04/21 00:40:26;;;;;;;14.93;13.53;;;;;;;1.93;100.00;98976.00;5092858;28;21011;-77
2022/04/21 00:42:54;;;;;;;16.07;14.37;;;;;;;1.90;100.00;98979.00;5092655;28;20225;-78
2022/04/21 00:45:21;;;;;;;15.80;14.13;;;;;;;1.88;100.00;98973.88;5092854;28;20188;-77
2022/04/21 00:47:49;;;;;;;15.53;14.03;;;;;;;1.86;100.00;98975.91;5092620;28;20184;-78
2022/04/21 00:50:23;;;;;;;14.63;13.23;;;;;;;1.79;100.00;98969.69;5091042;28;20318;-78
2022/04/21 00:52:52;;;;;;;14.03;12.60;;;;;;;1.77;100.00;98969.06;5092258;28;20203;-78
2022/04/21 00:55:19;;;;;;;14.73;13.33;;;;;;;1.75;100.00;98971.88;5092655;28;20249;-79
2022/04/21 00:57:47;;;;;;;14.80;13.40;;;;;;;1.70;100.00;98971.59;5092859;28;20216;-78
2022/04/21 01:00:14;;;;;;;13.90;12.50;;;;;;;1.73;100.00;98975.69;5091642;28;20257;-77
2022/04/21 01:02:50;;;;;;;14.43;13.03;;;;;;;1.72;100.00;98971.41;5091395;28;20180;-76
2022/04/21 01:05:29;;;;;;;13.93;12.57;;;;;;;1.70;100.00;98963.66;5092311;28;20264;-78
2022/04/21 01:07:58;;;;;;;15.23;13.20;;;;;;;1.69;100.00;98966.47;5092499;28;20175;-77
2022/04/21 01:10:27;;;;;;;15.37;12.43;;;;;;;1.72;100.00;98968.78;5091682;28;20223;-78
2022/04/21 01:12:54;;;;;;;14.60;13.20;;;;;;;1.71;100.00;98970.59;5091644;28;20180;-77
2022/04/21 01:15:21;;;;;;;14.23;12.80;;;;;;;1.74;100.00;98969.41;5091938;28;20267;-78
2022/04/21 01:17:47;;;;;;;13.50;12.10;;;;;;;1.80;100.00;98967.88;5092142;28;20224;-78
2022/04/21 01:20:19;;;;;;;14.20;12.80;;;;;;;1.78;100.00;98954.84;5091667;28;20227;-78
2022/04/21 01:22:46;;;;;;;13.40;12.17;;;;;;;1.78;100.00;98950.38;5091805;28;20210;-78
2022/04/21 01:25:12;;;;;;;13.60;12.40;;;;;;;1.77;100.00;98959.28;5092209;28;20283;-78
2022/04/21 01:27:40;;;;;;;13.77;12.47;;;;;;;1.77;100.00;98966.44;5092023;28;20222;-78
2022/04/21 01:30:07;;;;;;;12.97;11.67;;;;;;;1.72;100.00;98961.69;5091326;28;20212;-78
2022/04/21 01:32:38;;;;;;;13.27;12.07;;;;;;;1.66;100.00;98953.63;5090291;28;20200;-78
2022/04/21 01:35:06;;;;;;;12.93;11.73;;;;;;;1.62;100.00;98953.19;5091590;28;20241;-78
2022/04/21 01:43:04;;;;;;;12.77;11.67;;;;;;;1.52;100.00;98952.63;5091216;28;20192;-78
2022/04/21 01:45:31;;;;;;;13.37;12.03;;;;;;;1.50;100.00;98946.69;5092050;28;20271;-78
2022/04/21 01:47:58;;;;;;;13.30;11.97;;;;;;;1.50;100.00;98938.75;5091109;28;20665;-77
2022/04/21 01:50:26;;;;;;;13.17;11.87;;;;;;;1.46;100.00;98937.47;5091128;28;20909;-77
2022/04/21 01:52:53;;;;;;;13.27;11.83;;;;;;;1.42;100.00;98938.84;5091328;28;20219;-77
2022/04/21 01:55:20;;;;;;;13.47;12.07;;;;;;;1.40;100.00;98935.53;5091331;28;20181;-77
2022/04/21 01:57:46;;;;;;;13.43;12.20;;;;;;;1.40;100.00;98934.75;5091332;28;20260;-77
2022/04/21 02:00:13;;;;;;;14.00;12.60;;;;;;;1.38;100.00;98929.63;5090437;28;20243;-77
2022/04/21 02:02:40;;;;;;;13.30;12.00;;;;;;;1.32;100.00;98930.34;5090455;28;20185;-77
2022/04/21 02:05:07;;;;;;;12.90;11.70;;;;;;;1.30;100.00;98938.44;5091394;28;20687;-77
2022/04/21 02:07:34;;;;;;;13.20;11.97;;;;;;;1.26;100.00;98929.22;5091352;28;20185;-77
2022/04/21 02:10:00;;;;;;;13.37;12.07;;;;;;;1.22;100.00;98930.56;5090678;28;20242;-77
2022/04/21 02:12:28;;;;;;;13.57;12.23;;;;;;;1.22;100.00;98925.28;5090304;28;20223;-78
2022/04/21 02:14:55;;;;;;;13.83;12.47;;;;;;;1.17;100.00;98927.63;5091168;28;20184;-77
2022/04/21 02:17:24;;;;;;;13.00;11.80;;;;;;;1.17;100.00;98921.53;5090306;28;20191;-77
2022/04/21 02:19:51;;;;;;;13.77;12.40;;;;;;;1.09;100.00;98921.59;5089159;28;20215;-77
2022/04/21 02:22:18;;;;;;;13.10;11.80;;;;;;;1.08;100.00;98930.50;5090333;28;20279;-77
2022/04/21 02:24:44;;;;;;;12.53;11.33;;;;;;;1.04;100.00;98926.59;5090825;28;20295;-77
2022/04/21 02:27:11;;;;;;;13.60;12.30;;;;;;;1.03;100.00;98924.94;5090294;28;20219;-76
2022/04/21 02:29:38;;;;;;;13.90;12.50;;;;;;;1.03;100.00;98922.31;5090787;28;20199;-77
2022/04/21 02:32:05;;;;;;;12.67;11.47;;;;;;;1.02;100.00;98920.69;5090346;28;20184;-77
2022/04/21 02:34:32;;;;;;;12.27;11.13;;;;;;;0.97;100.00;98918.56;5090205;28;20187;-76
2022/04/21 02:36:58;;;;;;;12.47;11.37;;;;;;;0.95;100.00;98917.09;5090844;28;20219;-78
2022/04/21 02:39:25;;;;;;;13.43;12.23;;;;;;;0.92;100.00;98914.81;5090150;28;20272;-78
2022/04/21 02:41:52;;;;;;;13.60;12.20;;;;;;;0.87;100.00;98908.25;5090208;28;20263;-77
2022/04/21 02:44:19;;;;;;;12.93;11.63;;;;;;;0.87;100.00;98912.72;5090011;28;20208;-77
2022/04/21 02:46:46;;;;;;;12.80;11.60;;;;;;;0.85;100.00;98910.25;5090611;28;20611;-78
2022/04/21 02:49:14;;;;;;;13.00;11.70;;;;;;;0.83;100.00;98906.97;5089924;28;20271;-77
2022/04/21 02:51:41;;;;;;;12.93;11.63;;;;;;;0.83;100.00;98909.59;5090004;28;20239;-77
2022/04/21 02:59:40;;;;;;;13.60;12.33;;;;;;;0.76;100.00;98902.56;5090016;28;20196;-77
2022/04/21 03:02:07;;;;;;;12.97;11.77;;;;;;;0.72;100.00;98901.25;5088085;28;20267;-77
2022/04/21 03:04:33;;;;;;;13.07;11.87;;;;;;;0.70;100.00;98905.91;5090100;28;20278;-77
2022/04/21 03:07:00;;;;;;;13.20;11.90;;;;;;;0.68;100.00;98906.06;5090692;28;20184;-77
2022/04/21 03:09:26;;;;;;;12.87;11.67;;;;;;;0.64;100.00;98903.97;5089323;28;20204;-77
2022/04/21 03:11:53;;;;;;;12.87;11.67;;;;;;;0.62;100.00;98906.75;5090160;28;20823;-77
2022/04/21 03:14:20;;;;;;;12.53;11.23;;;;;;;0.59;100.00;98901.03;5089762;28;20275;-77
2022/04/21 03:16:46;;;;;;;13.20;11.90;;;;;;;0.57;100.00;98919.63;5090486;28;20275;-76
2022/04/21 03:19:13;;;;;;;13.30;12.10;;;;;;;0.52;100.00;98916.69;5089375;28;20251;-77
2022/04/21 03:24:25;;;;;;;12.87;11.67;;;;;;;0.50;100.00;98920.50;5089899;28;20231;-77
2022/04/21 03:26:53;;;;;;;13.10;11.80;;;;;;;0.41;100.00;98920.56;5089975;28;20676;-77
2022/04/21 03:29:20;;;;;;;13.10;11.90;;;;;;;0.38;100.00;98925.31;5089245;28;20710;-77
2022/04/21 03:31:48;;;;;;;13.63;12.33;;;;;;;0.37;100.00;98921.88;5090048;28;20192;-77
2022/04/21 03:34:16;;;;;;;13.77;12.50;;;;;;;0.32;100.00;98921.59;5089564;28;20208;-78
2022/04/21 03:36:47;;;;;;;13.80;12.40;;;;;;;0.33;100.00;98925.03;5090367;28;20219;-77
2022/04/21 03:39:16;;;;;;;13.07;11.77;;;;;;;0.31;100.00;98929.66;5088278;28;20727;-77
2022/04/21 03:41:43;;;;;;;13.90;12.43;;;;;;;0.31;100.00;98932.28;5093423;28;20657;-78
2022/04/21 03:44:11;;;;;;;13.63;12.43;;;;;;;0.28;100.00;98928.16;5093597;28;20271;-77
2022/04/21 03:46:38;;;;;;;13.90;12.60;;;;;;;0.27;100.00;98929.19;5092996;28;20180;-78
2022/04/21 03:49:05;;;;;;;13.97;12.67;;;;;;;0.27;100.00;98929.19;5093092;28;20229;-78
2022/04/21 03:51:33;;;;;;;14.10;12.67;;;;;;;0.19;100.00;98929.19;5093520;28;20686;-78
2022/04/21 03:54:00;;;;;;;13.57;12.27;;;;;;;0.19;100.00;98923.94;5093478;28;20188;-78
2022/04/21 03:56:27;;;;;;;14.13;12.80;;;;;;;0.19;100.00;98931.00;5094281;28;20688;-78
2022/04/21 03:58:54;;;;;;;13.67;12.37;;;;;;;0.18;100.00;98932.84;5093557;28;20212;-78
2022/04/21 04:01:21;;;;;;;14.83;13.33;;;;;;;0.19;100.00;98926.56;5093069;28;20284;-78
2022/04/21 04:03:48;;;;;;;13.80;12.23;;;;;;;0.20;100.00;98919.47;5092949;28;20267;-78
2022/04/21 04:11:46;;;;;;;13.67;12.27;;;;;;;0.13;100.00;98937.81;5092885;28;20204;-74
2022/04/21 04:14:13;;;;;;;14.63;13.23;;;;;;;0.14;100.00;98941.25;5093144;28;20214;-75
2022/04/21 04:16:39;;;;;;;13.87;12.53;;;;;;;0.17;100.00;98943.53;5093673;28;20219;-75
2022/04/21 04:19:10;;;;;;;14.87;13.37;;;;;;;0.20;100.00;98949.28;5092560;28;20220;-75
2022/04/21 04:21:38;;;;;;;15.17;13.47;;;;;;;0.20;100.00;98951.91;5092774;28;20188;-77
2022/04/21 04:24:06;;;;;;;14.77;13.27;;;;;;;0.30;100.00;98960.44;5092442;28;20220;-79
2022/04/21 04:26:32;;;;;;;14.93;13.43;;;;;;;0.34;100.00;98964.38;5092161;28;20235;-78
2022/04/21 04:28:59;;;;;;;14.10;12.70;;;;;;;0.38;100.00;98962.22;5093311;28;20275;-78
2022/04/21 04:31:26;;;;;;;14.73;13.33;;;;;;;0.42;100.00;98958.28;5092431;28;20215;-77
2022/04/21 04:33:53;;;;;;;14.73;13.10;;;;;;;0.50;100.00;98966.16;5093080;28;20291;-77
2022/04/21 04:36:19;;;;;;;14.23;12.87;;;;;;;0.55;100.00;98961.19;5093157;28;20223;-75
2022/04/21 04:38:48;;;;;;;13.77;12.37;;;;;;;0.61;100.00;98957.00;5092806;28;20204;-75
2022/04/21 04:44:01;;;;;;;13.83;12.47;;;;;;;0.97;100.00;98946.78;5092899;28;20199;-77
2022/04/21 04:46:40;;;;;;;14.47;13.07;;;;;;;1.09;100.00;98950.63;5091643;28;20565;-79
2022/04/21 04:49:09;;;;;;;14.47;13.00;;;;;;;1.25;100.00;98947.88;5091937;28;20576;-78
2022/04/21 04:51:38;;;;;;;13.97;12.73;;;;;;;1.40;100.00;98951.38;5091786;28;20261;-77
2022/04/21 04:54:06;;;;;;;13.47;12.17;;;;;;;1.56;100.00;98958.34;5092034;28;20259;-78
2022/04/21 04:56:33;;;;;;;13.57;12.27;;;;;;;1.72;100.00;98950.28;5092759;28;20208;-78
2022/04/21 04:59:00;;;;;;;13.93;12.57;;;;;;;1.86;100.00;98954.78;5092346;28;20180;-78
2022/04/21 05:01:41;;;;;;;13.40;12.10;;;;;;;2.03;100.00;98958.88;5091181;28;20239;-78
2022/04/21 05:04:16;;;;;;;13.20;12.00;;;;;;;2.20;100.00;98955.06;5090588;28;20627;-78
2022/04/21 05:06:47;;;;;;;12.43;11.20;;;;;;;2.41;100.00;98956.16;5092781;28;20219;-77
2022/04/21 05:09:15;;;;;;;13.63;12.33;;;;;;;2.56;100.00;98946.38;5091877;28;20211;-78
2022/04/21 05:11:43;;;;;;;12.80;11.50;;;;;;;2.76;100.00;98950.06;5091859;28;20216;-78
2022/04/21 05:14:10;;;;;;;12.50;11.40;;;;;;;2.95;100.00;98944.16;5091953;28;20240;-78
2022/04/21 05:16:39;;;;;;;12.00;10.90;;;;;;;3.13;100.00;98943.75;5091664;28;20219;-79
2022/04/21 05:19:07;;;;;;;12.30;11.20;;;;;;;3.33;100.00;98944.75;5091379;28;20231;-79
2022/04/21 05:21:35;;;;;;;12.67;11.47;;;;;;;3.49;100.00;98947.16;5092017;28;20273;-78
2022/04/21 05:24:02;;;;;;;11.50;10.37;;;;;;;3.62;100.00;98941.13;5091495;28;20202;-79
2022/04/21 05:26:30;;;;;;;12.43;11.23;;;;;;;3.82;100.00;98946.59;5090746;28;20176;-78
2022/04/21 05:28:59;;;;;;;11.37;10.33;;;;;;;4.00;100.00;98944.28;5091455;28;20219;-78
2022/04/21 05:31:26;;;;;;;10.97;9.93;;;;;;;4.16;100.00;98943.94;5091653;28;20216;-78
2022/04/21 05:33:54;;;;;;;12.50;11.30;;;;;;;4.31;100.00;98947.31;5091156;28;20184;-78
2022/04/21 05:36:21;;;;;;;11.50;10.47;;;;;;;4.50;100.00;98952.91;5092316;28;20586;-78
2022/04/21 05:38:49;;;;;;;12.23;10.93;;;;;;;4.69;100.00;98958.31;5090133;28;20204;-78
2022/04/21 05:41:18;;;;;;;13.27;11.97;;;;;;;4.88;100.00;98962.06;5091546;28;20329;-78
2022/04/21 05:43:46;;;;;;;12.63;11.40;;;;;;;5.04;100.00;98956.38;5090402;28;20306;-78
2022/04/21 05:46:15;;;;;;;14.63;12.70;;;;;;;5.22;100.00;98964.59;5090278;28;20188;-78
2022/04/21 05:48:42;;;;;;;15.77;14.17;;;;;;;5.43;100.00;98962.78;5090045;28;20267;-78
2022/04/21 05:51:11;;;;;;;15.57;14.07;;;;;;;5.57;100.00;98957.28;5090612;28;20241;-78
2022/04/21 05:53:39;;;;;;;15.00;13.50;;;;;;;5.74;100.00;98963.00;5090850;28;20181;-78
2022/04/21 05:56:08;;;;;;;15.63;14.17;;;;;;;5.90;100.00;98956.50;5085511;28;20185;-79
2022/04/21 05:58:37;;;;;;;17.33;15.63;;;;;;;6.02;100.00;98957.53;5082398;28;20204;-78
2022/04/21 06:01:09;;;;;;;17.23;15.40;;;;;;;6.14;100.00;98943.38;5086938;28;20212;-79
2022/04/21 06:03:41;;;;;;;16.87;15.27;;;;;;;6.19;100.00;98942.75;5073106;28;20263;-78
2022/04/21 06:06:09;;;;;;;17.03;15.37;;;;;;;6.11;100.00;98942.97;5090717;28;20639;-79
2022/04/21 06:08:38;;;;;;;17.37;15.43;;;;;;;6.07;100.00;98942.56;5085815;28;20177;-78
2022/04/21 06:11:05;;;;;;;16.70;15.10;;;;;;;6.34;100.00;98943.34;5069946;28;20243;-78
2022/04/21 06:13:32;;;;;;;18.37;15.77;;;;;;;6.28;100.00;98951.31;5070242;28;20605;-78
2022/04/21 06:15:59;;;;;;;16.07;14.47;;;;;;;6.25;100.00;98951.75;5070880;28;20823;-78
2022/04/21 06:18:26;;;;;;;17.00;15.23;;;;;;;6.28;100.00;98953.97;5084441;28;20251;-78
2022/04/21 06:20:53;;;;;;;17.07;15.27;;;;;;;6.38;100.00;98949.06;5089110;28;20265;-79
2022/04/21 06:23:21;;;;;;;17.00;15.30;;;;;;;6.54;100.00;98940.59;5090116;28;20212;-78
2022/04/21 06:25:48;;;;;;;16.27;14.77;;;;;;;6.63;100.00;98942.81;5083728;28;20257;-78
2022/04/21 06:28:15;;;;;;;16.67;15.07;;;;;;;6.80;100.00;98950.34;5072838;28;20266;-79
2022/04/21 06:30:42;;;;;;;16.23;14.63;;;;;;;6.93;100.00;98956.41;5090295;28;20200;-78
2022/04/21 06:33:15;;;;;;;17.07;15.40;;;;;;;7.05;100.00;98952.03;5081212;28;20291;-78
2022/04/21 06:35:41;;;;;;;18.67;16.87;;;;;;;7.20;100.00;98957.06;5087710;28;20241;-78
2022/04/21 06:38:08;;;;;;;19.17;16.27;;;;;;;7.34;100.00;98941.81;5090355;28;20216;-79
2022/04/21 06:40:35;;;;;;;18.47;16.47;;;;;;;7.37;100.00;98946.75;5089758;28;20590;-79
2022/04/21 06:48:01;;;;;;;18.73;16.67;;;;;;;7.35;100.00;98951.47;5090106;28;20180;-78
2022/04/21 06:48:34;;;;;;;18.93;17.03;;;;;;;7.49;100.00;98955.66;5090203;28;20278;-79
2022/04/21 06:51:01;;;;;;;18.90;16.73;;;;;;;7.59;100.00;98953.34;5090250;28;20230;-79
2022/04/21 06:53:29;;;;;;;19.30;17.37;;;;;;;7.61;100.00;98961.91;5089669;28;20211;-79
2022/04/21 06:55:56;;;;;;;19.60;17.70;;;;;;;7.77;100.00;98955.25;5090471;28;20550;-78
2022/04/21 06:58:23;;;;;;;19.83;17.80;;;;;;;7.64;100.00;98950.03;5084744;28;20262;-79
2022/04/21 07:00:50;;;;;;;18.90;17.03;;;;;;;7.84;100.00;98950.66;5069357;28;20810;-79
2022/04/21 07:03:16;;;;;;;19.57;17.53;;;;;;;7.97;100.00;98958.56;5069307;28;20260;-79
2022/04/21 07:05:44;;;;;;;19.07;17.20;;;;;;;8.06;100.00;98951.91;5069633;28;20715;-79
2022/04/21 07:08:11;;;;;;;18.67;16.77;;;;;;;7.95;100.00;98944.63;5073264;28;20212;-79
2022/04/21 07:10:37;;;;;;;19.67;16.77;;;;;;;8.03;100.00;98946.19;5089611;28;20204;-78
2022/04/21 07:13:11;;;;;;;18.50;16.70;;;;;;;7.95;100.00;98944.63;5088257;28;20569;-79
2022/04/21 07:15:40;;;;;;;20.33;18.20;;;;;;;8.02;100.00;98939.25;5088867;28;20172;-78
2022/04/21 07:18:08;;;;;;;20.33;18.23;;;;;;;8.17;100.00;98937.84;5089420;28;20253;-79
2022/04/21 07:20:35;;;;;;;19.77;17.83;;;;;;;8.20;100.00;98939.25;5089658;28;20184;-79
2022/04/21 07:23:02;;;;;;;19.00;17.30;;;;;;;8.04;100.00;98931.81;5089876;28;20259;-78
2022/04/21 07:25:29;;;;;;;19.00;17.20;;;;;;;8.27;100.00;98935.47;5089646;28;20627;-79
2022/04/21 07:27:56;;;;;;;21.00;19.00;;;;;;;8.25;100.00;98936.75;5090279;28;20215;-79
2022/04/21 07:30:22;;;;;;;21.60;19.60;;;;;;;8.39;100.00;98939.09;5088606;28;20227;-79
2022/04/21 07:32:49;;;;;;;21.93;19.83;;;;;;;8.47;100.00;98932.63;5081223;28;20203;-78
2022/04/21 07:35:18;;;;;;;23.07;20.83;;;;;;;8.85;100.00;98932.38;5069672;28;20708;-79
2022/04/21 07:37:46;;;;;;;23.23;21.03;;;;;;;8.68;100.00;98937.50;5069642;28;20216;-79
2022/04/21 07:40:13;;;;;;;23.53;21.43;;;;;;;8.59;100.00;98935.34;5068347;28;20185;-79
2022/04/21 07:42:40;;;;;;;23.83;21.63;;;;;;;8.50;100.00;98936.69;5068962;28;20274;-79
2022/04/21 07:45:07;;;;;;;22.40;20.40;;;;;;;8.64;100.00;98935.50;5069060;28;20188;-79
2022/04/21 07:47:34;;;;;;;22.77;20.50;;;;;;;8.65;100.00;98939.81;5069675;28;20185;-79
2022/04/21 07:50:01;;;;;;;23.10;20.90;;;;;;;8.74;100.00;98941.97;5069119;28;20859;-79
2022/04/21 07:55:33;;;;;;;24.00;21.80;;;;;;;9.16;100.00;98953.53;5066801;28;20227;-79
2022/04/21 07:57:59;;;;;;;24.47;22.10;;;;;;;8.95;100.00;98948.69;5067438;28;20217;-79
2022/04/21 08:00:26;;;;;;;24.83;22.43;;;;;;;9.22;100.00;98938.44;5067285;28;20319;-79
2022/04/21 08:02:53;;;;;;;24.13;21.90;;;;;;;9.44;100.00;98950.25;5066945;28;20675;-79
2022/04/21 08:05:22;;;;;;;24.17;22.07;;;;;;;9.64;100.00;98949.97;5068012;28;20220;-79
2022/04/21 08:07:49;;;;;;;26.43;23.17;;;;;;;9.96;100.00;98951.28;5068467;28;20234;-78
2022/04/21 08:10:19;;;;;;;24.17;21.90;;;;;;;10.06;100.00;98946.16;5088547;28;20220;-78
2022/04/21 08:12:53;;;;;;;22.97;20.77;;;;;;;9.64;100.00;98945.44;5089021;28;20211;-78
2022/04/21 08:15:37;;;;;;;23.37;21.13;;;;;;;9.83;100.00;98942.66;5089020;28;20194;-79
2022/04/21 08:18:05;;;;;;;24.23;22.13;;;;;;;10.02;100.00;98941.50;5089154;28;20698;-78
2022/04/21 08:20:34;;;;;;;22.67;20.57;;;;;;;10.18;100.00;98931.97;5089304;28;20597;-79
2022/04/21 08:23:02;;;;;;;22.13;20.13;;;;;;;10.21;100.00;98929.66;5088219;28;20230;-78
2022/04/21 08:34:25;;;;;;;20.50;18.60;;;;;;;10.17;100.00;98930.38;5071298;28;20396;-78
2022/04/21 08:36:54;;;;;;;21.10;19.20;;;;;;;10.37;100.00;98933.47;5073328;28;20647;-79
2022/04/21 08:39:21;;;;;;;20.93;19.03;;;;;;;10.60;100.00;98926.22;5072257;28;20630;-77
2022/04/21 08:41:52;;;;;;;22.20;20.20;;;;;;;10.65;100.00;98925.50;5070849;28;20215;-78
2022/04/21 08:44:19;;;;;;;20.73;18.83;;;;;;;10.68;100.00;98926.91;5071971;28;20226;-78
2022/04/21 08:46:47;;;;;;;20.73;18.97;;;;;;;10.85;100.00;98930.47;5072750;28;20186;-79
2022/04/21 08:49:14;;;;;;;21.17;19.13;;;;;;;11.10;100.00;98939.00;5072096;28;20196;-78
2022/04/21 08:51:41;;;;;;;21.40;19.43;;;;;;;11.10;100.00;98935.50;5070390;28;20215;-78
2022/04/21 08:54:08;;;;;;;20.07;18.33;;;;;;;11.19;100.00;98934.06;5070293;28;20600;-79
2022/04/21 08:56:35;;;;;;;19.10;17.43;;;;;;;11.28;100.00;98932.63;5072452;28;20213;-78
2022/04/21 08:59:01;;;;;;;19.77;17.97;;;;;;;11.33;100.00;98936.22;5071677;28;20196;-76
2022/04/21 09:01:28;;;;;;;20.40;18.50;;;;;;;11.35;100.00;98938.63;5071467;28;20287;-76
2022/04/21 09:03:55;;;;;;;19.80;18.10;;;;;;;11.75;100.00;98928.66;5072163;28;20189;-75
2022/04/21 09:06:23;;;;;;;20.90;19.00;;;;;;;12.00;100.00;98924.72;5071792;28;20227;-76
2022/04/21 09:09:17;;;;;;;19.37;17.67;;;;;;;12.19;100.00;98920.69;5080596;28;20188;-77
2022/04/21 09:11:44;;;;;;;19.30;17.53;;;;;;;11.72;100.00;98926.44;5090283;28;20184;-78
2022/04/21 09:14:16;;;;;;;20.10;18.20;;;;;;;11.79;100.00;98920.91;5091637;28;20265;-79
2022/04/21 09:16:43;;;;;;;19.93;18.17;;;;;;;12.16;100.00;98922.03;5092097;28;20185;-77
2022/04/21 09:19:10;;;;;;;20.20;18.40;;;;;;;12.31;100.00;98919.56;5091552;28;20232;-78
2022/04/21 09:21:38;;;;;;;20.50;18.67;;;;;;;12.38;100.00;98919.38;5091290;28;20232;-79
2022/04/21 09:24:25;;;;;;;20.17;18.47;;;;;;;12.49;100.00;98915.75;5089994;28;20212;-78
2022/04/21 09:26:53;;;;;;;20.13;18.33;;;;;;;12.68;100.00;98919.78;5092073;28;20192;-77
2022/04/21 09:29:24;;;;;;;19.33;17.57;;;;;;;12.83;100.00;98910.25;5090849;28;20185;-78
2022/04/21 09:32:02;;;;;;;20.97;19.17;;;;;;;13.06;100.00;98915.38;5090106;28;20200;-79
2022/04/21 09:34:35;;;;;;;21.63;19.70;;;;;;;13.15;100.00;98903.13;5071157;28;20261;-78
2022/04/21 09:37:07;;;;;;;20.87;19.17;;;;;;;13.32;100.00;98909.19;5071521;28;20782;-78
2022/04/21 09:39:39;;;;;;;21.03;19.23;;;;;;;13.44;100.00;98895.56;5071148;28;20770;-78
2022/04/21 09:42:06;;;;;;;22.23;20.20;;;;;;;13.40;100.00;98899.84;5069490;28;20252;-78
2022/04/21 09:47:20;;;;;;;23.00;21.03;;;;;;;13.38;100.00;98897.44;5071174;28;20169;-79
2022/04/21 09:49:47;;;;;;;22.83;20.77;;;;;;;13.43;100.00;98894.78;5069359;28;20181;-79
2022/04/21 09:52:25;;;;;;;21.87;19.87;;;;;;;13.28;100.00;98891.13;5070980;28;20181;-78
2022/04/21 09:55:19;;;;;;;22.60;20.50;;;;;;;13.42;100.00;98884.28;5069802;28;20177;-78
2022/04/21 09:57:50;;;;;;;23.80;21.40;;;;;;;13.44;100.00;98882.13;5070430;28;20210;-78
2022/04/21 10:00:21;;;;;;;23.67;21.75;;;;;;;13.21;100.00;98884.06;5068181;28;20946;-78
2022/04/21 10:02:48;;;;;;;18.77;17.20;;;;;;;13.66;94.82;98878.28;5070543;28;20229;-78
2022/04/21 10:05:16;;;;;;;18.60;16.90;;;;;;;14.09;94.41;98871.84;5070198;28;20280;-79
2022/04/21 10:07:43;;;;;;;19.57;17.77;;;;;;;14.37;95.69;98872.56;5069564;28;20177;-79
2022/04/21 10:10:10;;;;;;;18.00;16.50;;;;;;;14.67;87.67;98863.78;5069785;28;20292;-78
2022/04/21 10:12:38;;;;;;;18.10;16.60;;;;;;;14.69;84.81;98862.47;5069169;28;20220;-78
2022/04/21 10:15:07;;;;;;;18.93;17.30;;;;;;;14.65;85.75;98858.66;5070631;28;20288;-77
2022/04/21 10:17:34;;;;;;;18.23;16.67;;;;;;;14.74;85.15;98858.97;5080663;28;20224;-79
2022/04/21 10:20:01;;;;;;;20.00;18.10;;;;;;;14.41;85.35;98852.09;5088161;28;20685;-78
2022/04/21 10:22:28;;;;;;;18.97;17.17;;;;;;;14.49;84.76;98844.31;5089058;28;20204;-78
2022/04/21 10:24:56;;;;;;;18.27;16.77;;;;;;;14.35;81.84;98845.84;5090843;28;20299;-78
2022/04/21 10:27:39;;;;;;;18.37;16.67;;;;;;;14.37;84.81;98841.03;5089169;28;20246;-79
2022/04/21 10:30:19;;;;;;;16.43;14.83;;;;;;;14.76;77.85;98848.72;5089545;28;20212;-79
2022/04/21 10:32:56;;;;;;;16.17;14.77;;;;;;;14.75;75.77;98833.59;5081520;28;20838;-78
2022/04/21 10:35:28;;;;;;;16.33;14.80;;;;;;;14.91;73.85;98830.69;5069315;28;20220;-77
2022/04/21 10:38:17;;;;;;;15.37;14.07;;;;;;;15.00;73.05;98833.69;5070483;28;20173;-78
2022/04/21 10:41:03;;;;;;;14.53;13.07;;;;;;;15.03;71.66;98825.03;5069184;28;20228;-79
2022/04/21 10:43:48;;;;;;;14.67;13.27;;;;;;;15.32;68.64;98823.44;5070018;28;20201;-78
2022/04/21 10:46:33;;;;;;;14.40;13.20;;;;;;;15.59;69.12;98804.31;5070397;28;20185;-79
2022/04/21 10:49:00;;;;;;;10.73;9.77;;;;;;;15.94;59.69;98816.13;5068255;28;20202;-79
2022/04/21 10:57:12;;;;;;;10.13;9.20;;;;;;;15.98;57.08;98811.78;5069533;28;20646;-78
2022/04/21 10:57:29;;;;;;;8.43;7.80;;;;;;;16.14;52.07;98802.56;5080938;28;20641;-78
2022/04/21 11:00:08;;;;;;;8.23;7.53;;;;;;;16.30;50.25;98790.59;5088625;28;20194;-78
2022/04/21 11:02:43;;;;;;;8.23;7.43;;;;;;;16.22;51.49;98791.19;5086028;28;20252;-78
2022/04/21 11:05:22;;;;;;;7.67;6.80;;;;;;;16.47;49.90;98791.06;5088912;28;20186;-79
2022/04/21 11:07:56;;;;;;;7.67;7.07;;;;;;;16.53;48.44;98783.75;5090027;28;20259;-79
2022/04/21 11:10:45;;;;;;;6.83;6.33;;;;;;;16.46;50.86;98785.94;5088477;28;20236;-79
2022/04/21 11:13:14;;;;;;;6.47;5.97;;;;;;;16.71;48.86;98785.81;5090191;28;20176;-78
2022/04/21 11:15:44;;;;;;;7.10;6.40;;;;;;;16.91;48.93;98795.72;5088585;28;20191;-78
2022/04/21 11:18:15;;;;;;;6.53;6.03;;;;;;;17.00;48.78;98794.03;5089234;28;20265;-79
2022/04/21 11:20:43;;;;;;;6.60;6.10;;;;;;;17.13;46.83;98794.19;5089809;28;20168;-78
2022/04/21 11:23:21;;;;;;;5.90;5.43;;;;;;;17.03;46.20;98786.16;5089614;28;20743;-78
2022/04/21 11:25:48;;;;;;;5.97;5.43;;;;;;;17.22;45.75;98790.91;5089818;28;20279;-79
2022/04/21 11:28:23;;;;;;;5.60;5.10;;;;;;;17.31;45.06;98790.00;5088633;28;20266;-78
2022/04/21 11:30:58;;;;;;;6.20;5.70;;;;;;;17.42;44.84;98780.72;5089101;28;20195;-79
2022/04/21 11:33:25;;;;;;;5.60;5.20;;;;;;;17.58;42.37;98782.22;5089718;28;20245;-79
2022/04/21 11:36:09;;;;;;;5.87;5.37;;;;;;;17.66;40.80;98780.78;5088905;28;20263;-78
2022/04/21 11:38:39;;;;;;;5.70;5.30;;;;;;;17.82;40.55;98784.97;5090011;28;20164;-78
2022/04/21 11:41:07;;;;;;;5.90;5.30;;;;;;;17.89;40.71;98780.00;5089292;28;20216;-79
2022/04/21 11:43:37;;;;;;;5.33;4.93;;;;;;;17.96;40.59;98782.38;5087967;28;20208;-79
2022/04/21 11:46:05;;;;;;;5.63;5.03;;;;;;;18.13;40.50;98771.06;5089195;28;20180;-78
2022/04/21 11:48:42;;;;;;;5.00;4.60;;;;;;;18.22;39.16;98759.28;5089870;28;20184;-79
2022/04/21 11:51:10;;;;;;;5.80;5.30;;;;;;;18.30;38.72;98763.25;5087623;28;20215;-79
2022/04/21 11:53:40;;;;;;;4.97;4.57;;;;;;;18.40;38.53;98746.84;5089062;28;20196;-79
2022/04/21 11:56:09;;;;;;;5.17;4.47;;;;;;;18.51;37.94;98752.97;5088889;28;20263;-78
2022/04/21 11:58:38;;;;;;;5.07;4.67;;;;;;;18.35;36.02;98752.34;5089776;28;20184;-79
2022/04/21 12:06:57;;;;;;;3.80;3.50;;;;;;;18.23;36.98;98735.72;5093735;28;20578;-79
2022/04/21 12:09:26;;;;;;;4.80;3.87;;;;;;;18.37;36.58;98734.69;5093353;28;20227;-79
2022/04/21 12:11:55;;;;;;;3.67;3.37;;;;;;;18.47;35.99;98739.19;5093154;28;20195;-78
2022/04/21 12:14:22;;;;;;;4.10;3.70;;;;;;;18.49;35.95;98732.34;5091954;28;20177;-79
2022/04/21 12:16:53;;;;;;;6.10;4.20;;;;;;;18.55;35.31;98724.19;5091954;28;20634;-78